Time;durP1;ratioP1;P1;durP2;ratioP2;P2;SDS_P1;SDS_P2;PMS_P1;PMS_P2;Temp;Humidity;BMP_temperature;BMP_pressure;BME280_temperature;BME280_humidity;BME280_pressure;Samples;Min_cycle;Max_cycle;Signal;HPM_P1;HPM_P2
2023/09/21 03:34:02;;;;;;;43.60;29.83;;;;;;;22.35;52.78;92561.94;6166100;23;20037;-92
2023/09/21 03:36:41;;;;;;;24.30;19.33;;;;;;;22.36;52.83;92563.41;6065054;23;20030;-92
2023/09/21 03:39:09;;;;;;;131.10;70.43;;;;;;;22.38;52.82;92564.31;6050508;22;20027;-93
2023/09/21 03:44:34;;;;;;;102.15;41.25;;;;;;;22.42;52.99;92566.69;6148240;23;20019;-93
2023/09/21 03:47:23;;;;;;;15.25;8.68;;;;;;;22.48;52.89;92564.47;6104354;23;20615;-91
2023/09/21 03:49:49;;;;;;;12.00;6.75;;;;;;;22.41;52.77;92557.69;6177354;23;20050;-94
2023/09/21 03:52:17;;;;;;;18.90;7.15;;;;;;;22.40;52.60;92556.22;6158247;23;20513;-94
2023/09/21 03:54:45;;;;;;;14.85;7.03;;;;;;;22.36;52.60;92555.88;6137878;23;20100;-94
2023/09/21 03:57:16;;;;;;;14.07;6.95;;;;;;;22.40;52.56;92542.44;6174278;23;20016;-94
2023/09/21 03:59:46;;;;;;;;;;;;;;;22.38;52.65;92552.56;6152247;23;20104;-93
2023/09/21 04:02:13;;;;;;;16.77;9.57;;;;;;;22.35;52.80;92554.41;6182444;23;19912;-93
2023/09/21 04:04:43;;;;;;;66.38;18.45;;;;;;;22.31;52.92;92550.56;6158677;23;20020;-92
2023/09/21 04:07:12;;;;;;;77.60;20.88;;;;;;;22.32;52.92;92549.28;6182881;23;20156;-93
2023/09/21 04:09:38;;;;;;;59.30;17.45;;;;;;;22.36;52.80;92546.88;6135199;23;20022;-93
2023/09/21 04:12:06;;;;;;;53.92;14.18;;;;;;;22.31;52.00;92551.28;6135344;23;20017;-92
2023/09/21 04:14:32;;;;;;;41.05;10.80;;;;;;;22.23;50.97;92540.31;6164461;23;20060;-93
2023/09/21 04:17:02;;;;;;;28.60;9.95;;;;;;;22.14;50.63;92549.16;6138753;23;20035;-93
2023/09/21 04:22:06;;;;;;;53.75;20.92;;;;;;;22.12;50.28;92537.25;6188223;23;20025;-92
2023/09/21 04:24:34;;;;;;;37.67;12.07;;;;;;;22.08;49.99;92539.66;6151913;23;20023;-93
2023/09/21 04:26:59;;;;;;;26.35;9.80;;;;;;;21.94;50.06;92541.88;6115600;23;20065;-92
2023/09/21 04:32:46;;;;;;;47.15;22.15;;;;;;;21.57;50.40;92537.19;6251798;22;20034;-92
2023/09/21 04:38:34;;;;;;;28.08;12.30;;;;;;;21.37;50.78;92525.13;6121180;23;20019;-91
2023/09/21 04:41:15;;;;;;;19.98;8.43;;;;;;;21.20;50.81;92529.16;6074657;23;20025;-91
2023/09/21 04:43:53;;;;;;;20.23;9.45;;;;;;;21.10;50.77;92524.72;6080730;23;20042;-93
2023/09/21 04:46:21;;;;;;;38.03;13.35;;;;;;;20.97;51.11;92522.91;6062012;23;20029;-92
2023/09/21 04:48:49;;;;;;;30.98;10.27;;;;;;;20.95;51.29;92522.72;6053856;23;20027;-92
2023/09/21 04:51:38;;;;;;;;;;;;;;;;;;;;;
2023/09/21 04:54:05;;;;;;;19.33;8.13;;;;;;;20.87;51.25;92530.22;6042875;23;20526;-94
2023/09/21 04:59:23;;;;;;;19.13;6.22;;;;;;;20.74;51.93;92525.63;6200519;22;20075;-92
2023/09/21 05:01:52;;;;;;;22.35;6.30;;;;;;;20.70;51.91;92528.00;6199698;23;20420;-92
2023/09/21 05:04:25;;;;;;;22.67;5.78;;;;;;;20.66;51.74;92522.13;6161415;23;20020;-93
2023/09/21 05:07:35;;;;;;;19.58;6.47;;;;;;;20.62;52.14;92523.75;6191310;23;20020;-93
2023/09/21 05:10:43;;;;;;;24.27;10.63;;;;;;;20.49;52.37;92524.66;6038056;23;20025;-93
2023/09/21 05:18:30;;;;;;;34.03;11.27;;;;;;;20.49;52.80;92511.69;6241425;23;20016;-93
2023/09/21 05:20:57;;;;;;;32.05;9.55;;;;;;;20.43;53.04;92504.88;6122934;23;20046;-94
2023/09/21 05:23:32;;;;;;;22.25;8.25;;;;;;;20.37;53.33;92505.03;6151938;23;20028;-91
2023/09/21 05:26:02;;;;;;;40.95;10.55;;;;;;;20.33;53.16;92509.41;6193677;23;20020;-93
2023/09/21 05:28:29;;;;;;;42.22;12.13;;;;;;;20.44;53.16;92507.09;6246333;23;20019;-94
2023/09/21 05:30:54;;;;;;;27.88;9.65;;;;;;;20.50;52.88;92517.91;6166146;23;20020;-93
2023/09/21 05:33:20;;;;;;;54.08;18.25;;;;;;;20.66;52.63;92524.88;6168442;23;20020;-93
2023/09/21 05:35:53;;;;;;;64.10;26.48;;;;;;;20.58;52.63;92512.41;6171403;23;20012;-93
2023/09/21 05:38:24;;;;;;;100.85;41.42;;;;;;;20.67;52.52;92514.63;6168400;23;20019;-94
2023/09/21 05:40:51;;;;;;;154.98;53.88;;;;;;;20.81;52.21;92519.41;6180478;23;20048;-93
2023/09/21 05:43:26;;;;;;;132.13;39.58;;;;;;;20.85;52.22;92510.78;6158816;23;20028;-93
2023/09/21 05:45:56;;;;;;;82.15;29.80;;;;;;;20.93;51.96;92499.81;6101648;23;20081;-95
2023/09/21 05:48:22;;;;;;;79.72;28.55;;;;;;;20.91;52.18;92505.13;6074962;23;20029;-91
2023/09/21 05:50:48;;;;;;;65.18;20.65;;;;;;;20.90;51.92;92511.91;6075442;23;20109;-90
2023/09/21 05:53:16;;;;;;;56.17;21.40;;;;;;;20.93;51.96;92506.06;6046664;23;20097;-91
2023/09/21 05:55:45;;;;;;;63.03;23.77;;;;;;;20.92;52.23;92504.59;6070346;23;20154;-95
2023/09/21 05:58:14;;;;;;;54.17;22.13;;;;;;;21.02;52.11;92502.00;5991603;23;20125;-93
2023/09/21 06:00:45;;;;;;;48.65;16.98;;;;;;;20.98;52.14;92512.66;5977082;23;20030;-94
2023/09/21 06:03:13;;;;;;;72.28;16.48;;;;;;;21.04;52.44;92504.94;5991595;23;20027;-92
2023/09/21 06:05:45;;;;;;;33.78;12.52;;;;;;;21.08;52.26;92508.06;6033800;23;20023;-92
2023/09/21 06:08:11;;;;;;;25.05;10.30;;;;;;;21.04;52.19;92502.91;6008049;23;20063;-92
2023/09/21 06:10:37;;;;;;;35.15;11.02;;;;;;;21.06;52.17;92492.13;6008498;23;20038;-91
2023/09/21 06:13:10;;;;;;;279.52;123.22;;;;;;;21.01;52.72;92506.03;6012913;23;20087;-94
2023/09/21 06:15:37;;;;;;;26.30;9.20;;;;;;;21.01;52.57;92514.28;5978258;23;20639;-92
2023/09/21 06:18:04;;;;;;;15.02;8.07;;;;;;;21.08;52.72;92516.31;6113965;23;20041;-90
2023/09/21 06:20:31;;;;;;;28.73;10.52;;;;;;;21.03;52.92;92503.47;6078373;23;20149;-89
2023/09/21 06:22:56;;;;;;;11.85;5.55;;;;;;;20.99;52.96;92511.38;6126877;23;20326;-91
2023/09/21 06:25:22;;;;;;;16.40;6.72;;;;;;;21.02;53.21;92504.75;6073851;23;20926;-92
2023/09/21 06:27:48;;;;;;;10.45;5.60;;;;;;;21.02;53.31;92504.75;6090362;23;20356;-92
2023/09/21 06:30:16;;;;;;;42.15;9.93;;;;;;;21.01;53.11;92506.03;6161312;23;20168;-91
2023/09/21 06:32:46;;;;;;;21.20;7.47;;;;;;;21.05;53.21;92492.66;6194480;23;20078;-93
2023/09/21 06:35:13;;;;;;;35.60;9.90;;;;;;;21.00;53.81;92497.06;6126081;23;20024;-93
2023/09/21 06:37:39;;;;;;;33.92;9.07;;;;;;;21.05;53.67;92493.41;6148254;23;20031;-93
2023/09/21 06:40:06;;;;;;;22.63;7.22;;;;;;;21.06;53.85;92486.63;6173941;23;20094;-91
2023/09/21 06:42:34;;;;;;;30.90;8.63;;;;;;;21.03;53.89;92487.72;6168460;23;20024;-93
2023/09/21 06:45:00;;;;;;;30.73;10.50;;;;;;;21.04;54.05;92483.69;6128906;23;20123;-92
2023/09/21 06:47:28;;;;;;;22.55;9.48;;;;;;;21.10;54.10;92483.50;6150332;23;20028;-92
2023/09/21 06:49:54;;;;;;;28.92;10.15;;;;;;;21.07;54.24;92482.59;6163043;23;20031;-90
2023/09/21 06:52:21;;;;;;;62.55;27.70;;;;;;;21.14;54.11;92484.59;6186549;23;20024;-91
2023/09/21 06:54:48;;;;;;;60.10;25.83;;;;;;;21.17;54.21;92480.03;6162039;23;20342;-93
2023/09/21 06:57:17;;;;;;;47.30;20.45;;;;;;;21.26;54.04;92468.50;6187946;23;20527;-92
2023/09/21 07:00:02;;;;;;;66.30;21.45;;;;;;;21.26;53.96;92462.25;6168587;23;20048;-94
2023/09/21 07:05:06;;;;;;;57.33;20.30;;;;;;;21.22;53.64;92459.16;6209270;23;20128;-93
2023/09/21 07:08:06;;;;;;;;;;;;;;;;;;;;;
2023/09/21 07:10:36;;;;;;;90.40;33.00;;;;;;;21.29;54.27;92466.66;6177032;23;20093;-92
2023/09/21 07:16:07;;;;;;;68.05;33.08;;;;;;;21.29;53.77;92467.38;6078990;23;20454;-91
2023/09/21 07:18:36;;;;;;;104.20;41.33;;;;;;;21.43;53.54;92459.69;6135113;23;20032;-92
2023/09/21 07:21:03;;;;;;;142.68;44.33;;;;;;;21.35;53.88;92464.44;6138815;23;20059;-91
2023/09/21 07:23:31;;;;;;;104.68;36.15;;;;;;;21.43;53.56;92462.44;6117283;23;20082;-90
2023/09/21 07:25:58;;;;;;;81.63;31.30;;;;;;;21.39;53.78;92462.78;6159150;23;20025;-90
2023/09/21 07:28:33;;;;;;;80.72;35.88;;;;;;;21.39;53.45;92471.03;6137078;23;20021;-91
2023/09/21 07:31:00;;;;;;;119.70;44.45;;;;;;;21.43;53.41;92465.91;6190087;23;20021;-89
2023/09/21 07:33:30;;;;;;;122.38;44.47;;;;;;;21.43;53.24;92459.69;6141012;23;20052;-91
2023/09/21 07:35:56;;;;;;;149.65;43.92;;;;;;;21.42;53.25;92475.44;6139110;23;20028;-91
2023/09/21 07:38:24;;;;;;;124.03;46.28;;;;;;;21.48;53.04;92464.22;6136387;23;20019;-93
2023/09/21 07:40:50;;;;;;;118.38;45.08;;;;;;;21.45;53.03;92470.81;6144596;23;20021;-91
2023/09/21 07:43:16;;;;;;;148.90;53.13;;;;;;;21.48;53.09;92472.47;6155362;23;20012;-89
2023/09/21 07:45:42;;;;;;;137.48;45.85;;;;;;;21.54;53.29;92471.00;6134242;23;20028;-90
2023/09/21 07:48:08;;;;;;;97.03;38.85;;;;;;;21.57;53.35;92471.19;6133279;23;20083;-89
2023/09/21 07:50:35;;;;;;;116.70;47.63;;;;;;;21.52;53.54;92478.34;6135993;23;20492;-89
2023/09/21 07:53:03;;;;;;;109.68;43.20;;;;;;;21.56;53.58;92484.19;6140247;23;20017;-88
2023/09/21 07:55:29;;;;;;;159.93;52.47;;;;;;;21.52;54.08;92484.56;6140247;23;20036;-92
2023/09/21 08:00:57;;;;;;;130.52;48.35;;;;;;;21.65;53.68;92482.91;6219919;22;20028;-89
2023/09/21 08:03:26;;;;;;;135.70;54.42;;;;;;;21.75;53.49;92486.53;6163360;23;20043;-92
2023/09/21 08:05:55;;;;;;;154.35;71.20;;;;;;;21.65;53.31;92485.66;6168339;23;20090;-91
2023/09/21 08:08:21;;;;;;;107.13;49.40;;;;;;;21.64;53.42;92479.44;6167904;23;20028;-89
2023/09/21 08:10:49;;;;;;;124.60;64.30;;;;;;;21.65;53.58;92469.16;6167172;23;20043;-94
2023/09/21 08:13:26;;;;;;;96.82;46.25;;;;;;;21.63;53.77;92480.72;6142916;23;20039;-94
2023/09/21 08:15:52;;;;;;;86.75;48.50;;;;;;;21.63;54.11;92474.47;6140371;23;20359;-90
2023/09/21 08:18:25;;;;;;;119.25;62.70;;;;;;;21.62;54.08;92470.25;6145467;23;20021;-93
2023/09/21 08:20:58;;;;;;;150.27;78.50;;;;;;;21.65;54.19;92478.09;6113833;23;20032;-91
2023/09/21 08:23:23;;;;;;;178.52;80.45;;;;;;;21.69;53.88;92472.25;6138045;23;20024;-91
2023/09/21 08:25:49;;;;;;;180.40;80.57;;;;;;;21.70;53.96;92471.69;6134993;23;20024;-92
2023/09/21 08:28:17;;;;;;;176.25;80.60;;;;;;;21.75;53.92;92473.50;6122965;23;20021;-92
2023/09/21 08:30:42;;;;;;;157.88;84.47;;;;;;;21.77;53.60;92470.19;6135966;23;20104;-91
2023/09/21 08:33:08;;;;;;;176.48;85.20;;;;;;;21.77;53.67;92468.19;6131824;23;20016;-91
2023/09/21 08:35:34;;;;;;;153.25;71.63;;;;;;;21.80;53.58;92467.06;6159532;23;20017;-93
2023/09/21 08:38:00;;;;;;;226.25;88.85;;;;;;;21.82;53.51;92475.50;6138524;23;20160;-90
2023/09/21 08:40:27;;;;;;;191.70;78.43;;;;;;;21.85;53.53;92468.91;6136845;23;20021;-92
2023/09/21 08:42:53;;;;;;;233.32;84.07;;;;;;;21.88;53.41;92467.03;6140597;23;20017;-91
2023/09/21 08:45:44;;;;;;;129.57;62.60;;;;;;;21.90;53.81;92461.72;6123476;23;20632;-94
2023/09/21 08:48:10;;;;;;;165.55;80.60;;;;;;;21.93;53.39;92460.59;6186445;23;20020;-93
2023/09/21 08:50:57;;;;;;;178.48;76.50;;;;;;;21.91;53.54;92457.66;6166302;23;20016;-91
2023/09/21 08:55:59;;;;;;;181.93;87.78;;;;;;;21.92;53.24;92459.13;6172500;23;20028;-95
2023/09/21 08:59:29;;;;;;;;;;;;;;;;;;;;;
2023/09/21 09:04:55;;;;;;;215.77;71.03;;;;;;;21.96;53.58;92453.25;6182923;22;20026;-94
2023/09/21 09:07:20;;;;;;;131.68;49.58;;;;;;;22.01;53.32;92455.84;6157170;23;20040;-92
2023/09/21 09:09:46;;;;;;;190.75;71.97;;;;;;;22.10;53.17;92455.22;6160604;23;20024;-92
2023/09/21 09:16:16;;;;;;;;;;;;;;;;;;;;;
2023/09/21 09:35:02;;;;;;;157.05;62.80;;;;;;;22.36;52.58;92442.97;6194946;22;20028;-93
2023/09/21 09:54:56;;;;;;;219.27;127.97;;;;;;;22.24;52.35;92425.44;6085947;23;20020;-94
2023/09/21 10:13:56;;;;;;;128.93;58.35;;;;;;;22.26;52.57;92416.63;6195362;22;20024;-94
2023/09/21 10:16:31;;;;;;;81.80;46.90;;;;;;;22.23;52.10;92407.44;6147613;23;20084;-94
2023/09/21 10:19:00;;;;;;;100.32;49.83;;;;;;;22.26;52.20;92416.63;6137411;23;20045;-92
2023/09/21 10:21:36;;;;;;;81.50;42.45;;;;;;;22.22;52.30;92412.22;6119249;23;20009;-94
2023/09/21 10:24:18;;;;;;;77.00;39.25;;;;;;;22.26;52.37;92408.34;6113758;23;20095;-94
2023/09/21 10:26:53;;;;;;;79.22;37.45;;;;;;;22.25;52.17;92407.63;6132658;23;20038;-95
2023/09/21 10:29:38;;;;;;;67.95;38.28;;;;;;;22.25;52.28;92404.88;6074986;23;20029;-93
2023/09/21 10:32:07;;;;;;;91.10;45.05;;;;;;;22.30;52.08;92406.66;6086104;23;20082;-94
2023/09/21 10:34:45;;;;;;;96.50;42.53;;;;;;;22.30;51.98;92412.16;6098235;23;20559;-95
2023/09/21 10:37:38;;;;;;;100.68;42.58;;;;;;;22.30;51.94;92400.44;6111294;23;20024;-94
2023/09/21 10:40:14;;;;;;;102.13;41.45;;;;;;;22.33;52.16;92405.53;6145267;23;20096;-94
2023/09/21 10:42:43;;;;;;;85.97;43.42;;;;;;;22.32;52.12;92409.59;6114589;23;20292;-94
2023/09/21 10:45:10;;;;;;;90.30;44.60;;;;;;;22.34;52.45;92401.50;6100303;23;20047;-94
2023/09/21 10:48:00;;;;;;;78.00;40.88;;;;;;;22.35;51.92;92394.69;6106529;23;20074;-95
2023/09/21 10:51:03;;;;;;;81.03;41.42;;;;;;;22.35;51.98;92377.44;6074183;23;20022;-92
2023/09/21 10:53:45;;;;;;;103.78;45.10;;;;;;;22.36;51.95;92376.16;6005218;23;20102;-94
2023/09/21 10:56:54;;;;;;;83.05;44.20;;;;;;;22.39;52.05;92370.25;5987649;23;20026;-95
2023/09/21 11:00:21;;;;;;;98.57;64.05;;;;;;;22.38;51.91;92359.81;5954578;22;20012;-94
2023/09/21 11:03:23;;;;;;;;;;;;;;;;;;;;;
2023/09/21 11:06:54;;;;;;;104.25;48.40;;;;;;;22.38;51.88;92351.53;6152491;22;20926;-94
2023/09/21 11:09:44;;;;;;;85.85;45.75;;;;;;;22.41;52.38;92342.88;6219995;22;20075;-94
2023/09/21 11:15:55;;;;;;;;;;;;;;;;;;;;;
2023/09/21 11:18:35;;;;;;;75.82;37.95;;;;;;;22.45;51.85;92339.75;6075116;23;20022;-94
2023/09/21 11:22:06;;;;;;;74.85;35.20;;;;;;;22.46;51.90;92341.94;6155131;23;20033;-95
2023/09/21 11:30:24;;;;;;;69.82;33.45;;;;;;;22.50;51.88;92334.00;6212610;22;20059;-94
2023/09/21 11:33:23;;;;;;;62.65;31.67;;;;;;;22.50;51.91;92334.00;6176033;22;20024;-94
2023/09/21 11:35:55;;;;;;;55.13;31.67;;;;;;;22.50;52.12;92328.50;6154247;23;20031;-94
2023/09/21 11:38:41;;;;;;;109.97;40.00;;;;;;;22.53;51.99;92319.09;6197756;23;20021;-94
2023/09/21 11:41:14;;;;;;;96.82;39.60;;;;;;;22.50;51.80;92306.47;6167910;23;20021;-94
2023/09/21 11:46:25;;;;;;;156.45;78.13;;;;;;;22.61;52.13;92321.78;6213328;23;20025;-93
2023/09/21 11:48:56;;;;;;;130.63;62.88;;;;;;;22.57;52.06;92313.19;6113207;23;20025;-94
2023/09/21 11:52:25;;;;;;;202.25;77.28;;;;;;;22.55;51.84;92311.00;6134103;23;20021;-95
2023/09/21 11:54:52;;;;;;;188.43;84.50;;;;;;;22.59;51.86;92302.34;6175237;23;20025;-93
2023/09/21 11:57:29;;;;;;;194.20;79.78;;;;;;;22.58;52.03;92315.38;6152247;23;20338;-96
2023/09/21 12:03:12;;;;;;;231.23;71.32;;;;;;;22.59;51.92;92313.34;6193743;23;20027;-94
2023/09/21 12:05:42;;;;;;;230.70;76.93;;;;;;;22.62;51.88;92306.00;6173915;23;20040;-94
2023/09/21 12:08:14;;;;;;;151.20;59.08;;;;;;;22.63;51.80;92301.94;6197617;23;20024;-93
2023/09/21 12:11:45;;;;;;;140.02;54.25;;;;;;;22.64;52.04;92298.63;6198056;23;20024;-94
2023/09/21 12:15:04;;;;;;;162.20;59.53;;;;;;;22.63;51.92;92299.91;6173523;23;20078;-95
2023/09/21 12:18:30;;;;;;;;;;;;;;;;;;;;;
2023/09/21 12:23:35;;;;;;;279.13;78.47;;;;;;;22.65;51.65;92302.84;6162941;23;20017;-95
2023/09/21 12:26:01;;;;;;;170.50;64.10;;;;;;;22.68;51.84;92298.22;6137527;23;20017;-92
2023/09/21 12:28:28;;;;;;;146.48;58.88;;;;;;;22.74;51.65;92299.44;6119839;23;20026;-94
2023/09/21 12:30:58;;;;;;;121.93;55.70;;;;;;;22.69;51.20;92288.66;6175243;23;20020;-94
2023/09/21 12:33:56;;;;;;;133.10;59.38;;;;;;;22.74;51.84;92282.91;6151956;23;20015;-93
2023/09/21 12:36:23;;;;;;;133.25;63.88;;;;;;;22.78;51.76;92277.75;6106980;23;20028;-93
2023/09/21 12:38:55;;;;;;;135.43;63.75;;;;;;;22.81;51.44;92276.63;6112975;23;20032;-94
2023/09/21 12:41:33;;;;;;;116.93;57.58;;;;;;;22.84;51.43;92272.72;6166827;23;20021;-94
2023/09/21 12:43:58;;;;;;;107.68;56.67;;;;;;;22.94;51.28;92281.09;6118037;23;20477;-93
2023/09/21 12:46:27;;;;;;;102.32;55.33;;;;;;;22.96;51.14;92266.72;6134583;23;20053;-94
2023/09/21 12:48:53;;;;;;;102.20;55.65;;;;;;;22.96;50.99;92272.22;6108927;23;20029;-91
2023/09/21 12:51:18;;;;;;;100.22;54.00;;;;;;;22.97;50.95;92279.94;6111070;23;20056;-92
2023/09/21 12:53:44;;;;;;;98.75;51.70;;;;;;;23.00;50.71;92267.03;6094914;23;20049;-92
2023/09/21 12:56:32;;;;;;;92.90;52.63;;;;;;;22.97;50.79;92259.91;6112226;23;20049;-93
2023/09/21 12:59:11;;;;;;;107.18;52.92;;;;;;;22.95;50.93;92263.22;6181669;23;20016;-94
2023/09/21 13:01:45;;;;;;;186.18;132.02;;;;;;;22.92;51.01;92261.63;6141160;23;20016;-93
2023/09/21 13:04:28;;;;;;;93.43;54.00;;;;;;;22.91;50.96;92260.19;6088804;23;20493;-92
2023/09/21 13:10:18;;;;;;;;;;;;;;;;;;;;;
2023/09/21 13:12:44;;;;;;;106.85;52.42;;;;;;;22.94;50.91;92250.03;6125656;23;20041;-93
2023/09/21 13:15:10;;;;;;;103.38;52.65;;;;;;;22.89;51.18;92255.22;6105777;23;20390;-92
2023/09/21 13:17:38;;;;;;;87.95;48.38;;;;;;;22.90;51.02;92245.66;6103586;23;20040;-93
2023/09/21 13:20:07;;;;;;;122.32;56.45;;;;;;;22.89;51.11;92251.75;6103627;23;20372;-92
2023/09/21 13:22:34;;;;;;;119.82;59.00;;;;;;;22.90;50.98;92247.69;6097109;23;20024;-94
2023/09/21 13:25:00;;;;;;;82.40;45.22;;;;;;;22.92;51.01;92239.59;6107465;23;20021;-93
2023/09/21 13:27:45;;;;;;;85.18;42.90;;;;;;;22.92;51.04;92247.13;6111893;23;20024;-93
2023/09/21 13:30:12;;;;;;;92.35;40.10;;;;;;;22.98;50.50;92240.06;6072573;23;20017;-93
2023/09/21 13:32:43;;;;;;;109.55;50.45;;;;;;;22.98;50.56;92228.28;6061524;23;20075;-93
2023/09/21 13:37:56;;;;;;;;;;;;;;;;;;;;;
2023/09/21 13:40:22;;;;;;;151.98;67.28;;;;;;;22.99;50.53;92227.00;6139265;23;20095;-92
2023/09/21 13:42:48;;;;;;;145.55;68.28;;;;;;;23.03;50.47;92228.06;6120238;23;20031;-91
2023/09/21 13:45:41;;;;;;;152.48;68.28;;;;;;;23.00;50.69;92218.16;6154261;23;20020;-93
2023/09/21 13:48:08;;;;;;;180.23;85.55;;;;;;;23.04;50.26;92223.28;6205627;22;20028;-94
2023/09/21 13:50:35;;;;;;;170.13;82.13;;;;;;;23.04;50.31;92215.00;6128270;23;20021;-92
2023/09/21 13:53:02;;;;;;;156.40;76.97;;;;;;;23.01;50.69;92229.91;6074650;23;20067;-92
2023/09/21 13:55:36;;;;;;;161.52;80.50;;;;;;;22.99;50.45;92219.47;6090668;23;20018;-93
2023/09/21 13:58:04;;;;;;;143.85;73.45;;;;;;;23.04;50.54;92224.00;6110919;23;20025;-89
2023/09/21 14:00:33;;;;;;;220.75;85.63;;;;;;;23.09;50.41;92225.06;6083967;23;20022;-93
2023/09/21 14:02:59;;;;;;;143.35;78.53;;;;;;;23.08;50.21;92221.56;6079451;23;20378;-92
2023/09/21 14:05:26;;;;;;;142.18;75.22;;;;;;;23.10;50.28;92224.47;6080842;23;20060;-93
2023/09/21 14:08:11;;;;;;;147.77;75.60;;;;;;;23.12;50.27;92221.16;6088972;23;20061;-93
2023/09/21 14:10:45;;;;;;;152.20;74.13;;;;;;;23.16;50.17;92222.22;6077872;23;20449;-93
2023/09/21 14:13:15;;;;;;;152.52;74.65;;;;;;;23.13;50.17;92217.84;6082172;23;20029;-95
2023/09/21 14:16:15;;;;;;;136.43;75.18;;;;;;;23.12;50.06;92215.66;6115832;23;20279;-94
2023/09/21 14:25:36;;;;;;;192.90;95.28;;;;;;;23.13;50.21;92206.06;6138343;23;20029;-93
2023/09/21 14:28:07;;;;;;;211.52;89.95;;;;;;;23.16;50.08;92202.91;5957594;24;20024;-95
2023/09/21 14:30:32;;;;;;;487.73;392.20;;;;;;;23.26;50.16;92202.94;5891266;24;20016;-92
2023/09/21 14:32:59;;;;;;;208.10;108.90;;;;;;;23.27;50.15;92196.13;5911260;24;20057;-92
2023/09/21 14:35:25;;;;;;;192.18;90.78;;;;;;;23.29;49.89;92201.09;5927121;24;20386;-92
2023/09/21 14:37:51;;;;;;;206.60;98.75;;;;;;;23.27;50.28;92193.38;5907454;24;20024;-90
2023/09/21 14:40:16;;;;;;;167.80;84.53;;;;;;;23.20;49.99;92183.91;5906301;24;20648;-90
2023/09/21 14:42:42;;;;;;;196.75;94.38;;;;;;;23.19;50.07;92187.97;5906641;24;20027;-92
2023/09/21 14:45:09;;;;;;;336.70;102.15;;;;;;;23.16;50.04;92191.88;5928002;24;20047;-91
2023/09/21 14:47:38;;;;;;;671.05;127.78;;;;;;;23.28;49.98;92185.84;5952986;24;20027;-92
2023/09/21 14:50:04;;;;;;;592.88;112.28;;;;;;;23.26;49.59;92191.94;5906013;24;20298;-90
2023/09/21 14:52:30;;;;;;;533.20;98.05;;;;;;;23.24;49.96;92177.97;5909104;24;20065;-92
2023/09/21 14:54:59;;;;;;;424.65;89.65;;;;;;;23.23;50.41;92184.78;5930414;24;20012;-93
2023/09/21 14:57:25;;;;;;;433.00;91.78;;;;;;;23.20;50.06;92181.16;5929383;24;20027;-92
2023/09/21 14:59:51;;;;;;;366.15;77.45;;;;;;;23.25;49.94;92184.94;5909883;24;20025;-93
2023/09/21 15:02:18;;;;;;;235.60;58.25;;;;;;;23.27;49.63;92184.38;5933700;24;20083;-92
2023/09/21 15:04:43;;;;;;;227.00;55.97;;;;;;;23.25;49.39;92182.19;6001575;23;20025;-92
2023/09/21 15:07:09;;;;;;;279.23;99.70;;;;;;;23.25;49.55;92180.16;6077980;23;20017;-91
2023/09/21 15:09:35;;;;;;;375.83;192.02;;;;;;;23.27;49.51;92181.63;6103108;23;20069;-92
2023/09/21 15:12:03;;;;;;;205.35;56.08;;;;;;;23.30;49.65;92175.69;6096948;23;20503;-92
2023/09/21 15:14:29;;;;;;;246.75;82.72;;;;;;;23.34;49.61;92169.78;6102323;23;20906;-93
2023/09/21 15:16:55;;;;;;;207.20;60.97;;;;;;;23.36;49.61;92169.94;6114530;23;20094;-92
2023/09/21 15:19:22;;;;;;;172.63;55.03;;;;;;;23.36;49.60;92159.63;6137518;23;20045;-91
2023/09/21 15:21:55;;;;;;;193.20;59.22;;;;;;;23.34;49.68;92159.47;6132467;23;20103;-92
2023/09/21 15:24:21;;;;;;;211.52;65.97;;;;;;;23.33;49.65;92160.03;6157918;23;20017;-92
2023/09/21 15:26:46;;;;;;;131.98;40.72;;;;;;;23.34;49.74;92153.94;6130484;23;20024;-90
2023/09/21 15:29:17;;;;;;;118.00;40.78;;;;;;;23.35;49.39;92157.44;6161958;23;20055;-93
2023/09/21 15:31:43;;;;;;;106.72;64.25;;;;;;;23.35;49.65;92149.16;6164640;23;20117;-92
2023/09/21 15:34:10;;;;;;;73.53;32.20;;;;;;;23.33;49.52;92146.97;6163526;23;20666;-94
2023/09/21 15:36:39;;;;;;;126.65;43.40;;;;;;;23.29;49.83;92157.69;6142656;22;20020;-93
2023/09/21 15:39:08;;;;;;;109.22;53.80;;;;;;;23.32;49.66;92155.81;6162902;23;20098;-93
2023/09/21 15:41:34;;;;;;;80.25;28.83;;;;;;;23.35;49.05;92160.94;6135580;23;20119;-93
2023/09/21 15:44:04;;;;;;;49.70;30.95;;;;;;;23.41;48.45;92144.09;6164114;23;20023;-92
2023/09/21 15:46:29;;;;;;;63.53;28.87;;;;;;;23.35;48.89;92146.41;6139910;23;20463;-92
2023/09/21 15:48:56;;;;;;;424.15;204.50;;;;;;;23.33;49.32;92140.72;6135234;23;20048;-93
2023/09/21 15:51:22;;;;;;;226.52;97.07;;;;;;;23.32;49.51;92142.03;6141991;23;20070;-89
2023/09/21 15:53:49;;;;;;;98.57;37.35;;;;;;;23.38;49.53;92139.75;6163190;23;20047;-92
2023/09/21 15:56:15;;;;;;;100.57;41.58;;;;;;;23.34;49.44;92134.66;6126801;23;20521;-92
2023/09/21 15:58:41;;;;;;;79.30;33.08;;;;;;;23.37;49.37;92133.50;6105197;23;20545;-91
2023/09/21 16:01:08;;;;;;;53.58;27.63;;;;;;;23.34;49.17;92128.41;6099631;23;20013;-90
2023/09/21 16:03:33;;;;;;;34.10;18.48;;;;;;;23.35;49.24;92129.84;6101268;23;20024;-92
2023/09/21 16:06:00;;;;;;;63.20;26.10;;;;;;;23.36;49.37;92118.25;6101065;23;20078;-88
2023/09/21 16:08:27;;;;;;;105.10;63.72;;;;;;;23.35;49.44;92116.81;6099453;23;20037;-92
2023/09/21 16:10:52;;;;;;;67.30;33.10;;;;;;;23.34;49.49;92112.59;6101308;23;20438;-90
2023/09/21 16:13:18;;;;;;;45.80;27.63;;;;;;;23.36;49.57;92112.75;6099489;23;20069;-91
2023/09/21 16:15:45;;;;;;;54.30;31.85;;;;;;;23.33;49.76;92107.66;6132435;23;20017;-92
2023/09/21 16:18:10;;;;;;;64.30;40.85;;;;;;;23.32;49.97;92106.91;6101239;23;20052;-91
2023/09/21 16:20:36;;;;;;;69.10;39.28;;;;;;;23.31;49.71;92110.97;6102798;23;20017;-92
2023/09/21 16:23:02;;;;;;;65.93;35.80;;;;;;;23.30;49.98;92101.25;6099952;23;20018;-92
2023/09/21 16:25:27;;;;;;;44.25;23.75;;;;;;;23.26;50.31;92100.94;6074214;23;20064;-92
2023/09/21 16:27:54;;;;;;;42.20;25.77;;;;;;;23.30;50.14;92104.00;6124540;23;20066;-91
2023/09/21 16:30:19;;;;;;;27.13;17.50;;;;;;;23.31;50.46;92107.50;6137763;23;20027;-92
2023/09/21 16:32:45;;;;;;;58.60;35.35;;;;;;;23.25;50.35;92099.47;6136747;23;20024;-93
2023/09/21 16:35:10;;;;;;;42.58;35.88;;;;;;;23.23;50.41;92099.31;6133751;23;20047;-92
2023/09/21 16:37:36;;;;;;;87.43;44.22;;;;;;;23.27;50.08;92091.34;6136738;23;20020;-93
2023/09/21 16:40:03;;;;;;;48.42;32.95;;;;;;;23.19;50.66;92080.44;6137823;23;20076;-92
2023/09/21 16:42:28;;;;;;;44.70;26.88;;;;;;;23.19;50.50;92090.72;6163456;23;20019;-92
2023/09/21 16:44:54;;;;;;;44.05;24.08;;;;;;;23.19;50.66;92091.47;6140042;23;20028;-94
2023/09/21 16:47:20;;;;;;;33.97;22.48;;;;;;;23.16;50.91;92086.41;6140653;23;20028;-92
2023/09/21 16:49:47;;;;;;;33.20;19.95;;;;;;;23.14;50.74;92086.97;6125681;23;20021;-92
2023/09/21 16:52:16;;;;;;;31.92;19.17;;;;;;;23.13;50.88;92084.78;6137804;23;20039;-93
2023/09/21 16:54:43;;;;;;;32.35;19.40;;;;;;;23.11;50.98;92079.13;6137442;23;20333;-94
2023/09/21 16:57:08;;;;;;;42.63;24.05;;;;;;;23.14;50.44;92086.25;6135368;23;20079;-94
2023/09/21 16:59:34;;;;;;;41.60;23.13;;;;;;;23.18;50.66;92078.97;6135982;23;20020;-92
2023/09/21 17:01:59;;;;;;;39.55;22.73;;;;;;;23.21;50.64;92088.88;6135566;23;20021;-93
2023/09/21 17:04:25;;;;;;;40.55;25.85;;;;;;;23.17;50.73;92083.03;6136151;23;20390;-93
2023/09/21 17:06:51;;;;;;;37.63;21.98;;;;;;;23.20;50.62;92078.41;6137804;23;20027;-93
2023/09/21 17:09:16;;;;;;;34.85;21.85;;;;;;;23.21;50.69;92086.09;6136175;23;20013;-94
2023/09/21 17:11:41;;;;;;;37.30;21.80;;;;;;;23.18;50.70;92078.97;6137489;23;20024;-93
2023/09/21 17:14:07;;;;;;;36.13;20.15;;;;;;;23.17;50.76;92087.81;6137632;23;20012;-93
2023/09/21 17:16:32;;;;;;;34.25;20.90;;;;;;;23.19;50.64;92087.97;6141270;23;20020;-93
2023/09/21 17:19:03;;;;;;;30.45;18.38;;;;;;;23.19;50.84;92083.19;6141037;23;20029;-93
2023/09/21 17:21:30;;;;;;;30.08;18.75;;;;;;;23.19;50.58;92090.72;6142476;23;20032;-93